Time;durP1;ratioP1;P1;durP2;ratioP2;P2;SDS_P1;SDS_P2;PMS_P1;PMS_P2;Temp;Humidity;BMP_temperature;BMP_pressure;BME280_temperature;BME280_humidity;BME280_pressure;Samples;Min_cycle;Max_cycle;Signal;HPM_P1;HPM_P2
2022/02/12 00:00:28;;;;;;;34.00;15.73;;;4.60;73.20;;;;;;5022407;28;20280;-90
2022/02/12 00:02:55;;;;;;;24.30;14.87;;;4.80;72.90;;;;;;5019741;28;20420;-90
2022/02/12 00:05:24;;;;;;;36.55;17.30;;;4.70;72.40;;;;;;5067435;22;20487;-85
2022/02/12 00:07:51;;;;;;;27.48;12.38;;;4.70;72.30;;;;;;5038833;28;20185;-86
2022/02/12 00:10:17;;;;;;;32.80;15.90;;;4.60;72.10;;;;;;5052623;28;20181;-86
2022/02/12 00:12:43;;;;;;;25.25;14.02;;;4.60;72.30;;;;;;5047442;28;20200;-86
2022/02/12 00:15:09;;;;;;;29.87;15.00;;;4.20;72.20;;;;;;5044925;28;20562;-86
2022/02/12 00:17:34;;;;;;;29.33;14.50;;;4.10;72.90;;;;;;5069975;28;20456;-85
2022/02/12 00:20:01;;;;;;;30.27;13.73;;;4.10;73.50;;;;;;5059867;28;20180;-85
2022/02/12 00:22:26;;;;;;;33.55;15.43;;;4.10;73.60;;;;;;5059463;28;20182;-84
2022/02/12 00:24:52;;;;;;;25.40;14.17;;;4.10;73.80;;;;;;5057973;28;20198;-86
2022/02/12 00:27:18;;;;;;;26.30;15.80;;;4.10;74.10;;;;;;5044760;28;20460;-86
2022/02/12 00:29:44;;;;;;;34.63;15.43;;;4.20;74.20;;;;;;5051586;28;20441;-86
2022/02/12 00:32:10;;;;;;;25.53;15.40;;;4.20;74.10;;;;;;5047803;28;20862;-86
2022/02/12 00:34:35;;;;;;;31.63;15.70;;;4.30;74.00;;;;;;5037684;28;20452;-86
2022/02/12 00:37:01;;;;;;;24.67;14.83;;;4.20;73.90;;;;;;5046760;28;20734;-86
2022/02/12 00:39:27;;;;;;;36.30;15.40;;;4.00;74.00;;;;;;5047842;28;20189;-85
2022/02/12 00:41:52;;;;;;;30.70;15.47;;;4.20;74.00;;;;;;5055418;28;20470;-86
2022/02/12 00:44:18;;;;;;;29.83;15.90;;;4.30;73.80;;;;;;5059042;28;20745;-86
2022/02/12 00:46:44;;;;;;;28.60;14.07;;;4.20;73.40;;;;;;5048195;28;20548;-86
2022/02/12 00:49:09;;;;;;;25.97;14.47;;;4.10;73.40;;;;;;5043135;28;20260;-86
2022/02/12 00:51:35;;;;;;;36.90;15.47;;;4.10;73.50;;;;;;5043202;28;20251;-86
2022/02/12 00:54:05;;;;;;;25.63;15.10;;;4.00;73.70;;;;;;5043775;28;20248;-86
2022/02/12 00:56:31;;;;;;;31.00;13.93;;;4.00;73.80;;;;;;5049135;28;20186;-85
2022/02/12 00:58:57;;;;;;;33.47;14.05;;;4.00;73.90;;;;;;5043357;28;20877;-86
2022/02/12 01:01:23;;;;;;;27.20;14.03;;;4.00;74.00;;;;;;5043144;28;20170;-86
2022/02/12 01:03:49;;;;;;;27.75;14.55;;;3.90;74.10;;;;;;5041130;28;20481;-85
2022/02/12 01:06:15;;;;;;;29.85;14.45;;;4.00;74.10;;;;;;5036138;28;20182;-87
2022/02/12 01:08:41;;;;;;;18.55;12.70;;;3.90;74.00;;;;;;5035075;28;20209;-86
2022/02/12 01:11:07;;;;;;;31.73;14.05;;;4.00;74.00;;;;;;5043748;28;20195;-86
2022/02/12 01:13:33;;;;;;;26.63;12.60;;;3.90;73.90;;;;;;5045526;28;20204;-86
2022/02/12 01:15:59;;;;;;;24.40;11.03;;;3.90;73.90;;;;;;5047007;28;20230;-87
2022/02/12 01:18:25;;;;;;;28.85;12.40;;;3.90;74.00;;;;;;5037396;28;20460;-86
2022/02/12 01:20:51;;;;;;;24.80;12.80;;;3.80;74.00;;;;;;5046287;28;20271;-86
2022/02/12 01:23:16;;;;;;;27.23;12.70;;;3.70;74.20;;;;;;5048633;28;20180;-86
2022/02/12 01:25:44;;;;;;;26.67;12.87;;;3.80;74.40;;;;;;5047765;28;20194;-86
2022/02/12 01:28:10;;;;;;;28.73;14.65;;;3.90;74.50;;;;;;5049746;28;20194;-87
2022/02/12 01:30:35;;;;;;;24.40;12.50;;;3.90;74.70;;;;;;5052693;28;20280;-86
2022/02/12 01:33:01;;;;;;;23.27;13.20;;;3.90;74.60;;;;;;5055437;28;20432;-87
2022/02/12 01:35:27;;;;;;;25.50;14.07;;;3.90;74.60;;;;;;5046419;28;20203;-86
2022/02/12 01:37:53;;;;;;;20.25;11.65;;;3.90;74.60;;;;;;5045267;28;20464;-86
2022/02/12 01:40:24;;;;;;;26.07;12.17;;;3.90;74.60;;;;;;5048393;28;20193;-86
2022/02/12 01:42:51;;;;;;;32.47;11.52;;;4.00;74.40;;;;;;5044523;28;20177;-87
2022/02/12 01:45:17;;;;;;;21.05;13.27;;;4.00;74.30;;;;;;5065188;28;20201;-85
2022/02/12 01:47:43;;;;;;;19.80;11.50;;;3.90;74.30;;;;;;5056498;28;20232;-87
2022/02/12 01:50:09;;;;;;;26.92;12.98;;;4.00;74.20;;;;;;5038597;28;20825;-87
2022/02/12 01:52:37;;;;;;;21.65;10.70;;;3.90;74.20;;;;;;5044293;28;20188;-87
2022/02/12 01:55:04;;;;;;;29.27;10.95;;;3.90;74.40;;;;;;5045295;28;20201;-87
2022/02/12 01:57:31;;;;;;;18.83;10.63;;;3.80;74.50;;;;;;5040718;28;20205;-86
2022/02/12 01:59:56;;;;;;;17.45;10.88;;;3.90;74.70;;;;;;5042645;28;20182;-85
2022/02/12 02:02:24;;;;;;;36.03;12.60;;;3.80;74.70;;;;;;5045584;28;20559;-86
2022/02/12 02:04:50;;;;;;;20.00;10.35;;;3.90;74.80;;;;;;5038879;28;20460;-85
2022/02/12 02:07:16;;;;;;;26.83;11.40;;;3.90;74.70;;;;;;5045616;28;20285;-84
2022/02/12 02:09:42;;;;;;;26.35;11.02;;;3.90;74.50;;;;;;5045486;28;20177;-84
2022/02/12 02:12:08;;;;;;;18.77;9.40;;;3.80;74.50;;;;;;5045776;28;20740;-84
2022/02/12 02:14:38;;;;;;;36.67;12.20;;;3.70;74.60;;;;;;5049143;28;20233;-86
2022/02/12 02:17:05;;;;;;;19.15;10.20;;;3.70;74.70;;;;;;5042123;28;20459;-85
2022/02/12 02:19:30;;;;;;;27.05;10.75;;;3.70;75.10;;;;;;5044014;28;20178;-85
2022/02/12 02:21:57;;;;;;;24.92;12.35;;;3.70;75.00;;;;;;5050175;28;20173;-85
2022/02/12 02:24:23;;;;;;;28.10;11.40;;;3.80;75.00;;;;;;5045741;28;20209;-86
2022/02/12 02:26:49;;;;;;;30.10;13.80;;;3.80;74.70;;;;;;5044416;28;20174;-85
2022/02/12 02:29:15;;;;;;;31.73;12.27;;;3.80;74.50;;;;;;5033977;28;20182;-85
2022/02/12 02:31:41;;;;;;;25.48;11.65;;;3.70;74.50;;;;;;5043770;28;20569;-84
2022/02/12 02:34:11;;;;;;;23.90;13.77;;;3.70;74.50;;;;;;5045032;28;20235;-84
2022/02/12 02:36:37;;;;;;;23.02;12.10;;;3.70;74.60;;;;;;5052956;28;20424;-86
2022/02/12 02:39:05;;;;;;;21.05;12.15;;;3.60;74.70;;;;;;5042760;28;20263;-85
2022/02/12 02:41:31;;;;;;;21.55;12.90;;;3.60;74.70;;;;;;5049822;28;20223;-85
2022/02/12 02:43:57;;;;;;;27.92;13.77;;;3.60;74.80;;;;;;5041511;28;20201;-85
2022/02/12 02:46:23;;;;;;;24.20;12.00;;;3.60;74.90;;;;;;5042548;28;20170;-85
2022/02/12 02:48:48;;;;;;;22.80;12.97;;;3.60;74.90;;;;;;5042247;28;20423;-85
2022/02/12 02:56:45;;;;;;;23.33;12.65;;;3.60;75.30;;;;;;5041495;28;20205;-85
2022/02/12 02:59:11;;;;;;;30.27;13.18;;;3.50;75.40;;;;;;5037763;28;20181;-85
2022/02/12 03:01:37;;;;;;;23.17;12.77;;;3.60;75.30;;;;;;5040251;28;20186;-85
2022/02/12 03:04:04;;;;;;;20.30;12.80;;;3.60;75.30;;;;;;5046556;28;20513;-85
2022/02/12 03:06:30;;;;;;;30.52;12.98;;;3.60;75.10;;;;;;5047439;28;20186;-84
2022/02/12 03:08:57;;;;;;;17.80;12.98;;;3.60;75.10;;;;;;5049442;28;20188;-84
2022/02/12 03:11:23;;;;;;;20.42;11.77;;;3.60;75.20;;;;;;5054523;28;20182;-85
2022/02/12 03:13:51;;;;;;;21.50;12.90;;;3.60;75.20;;;;;;5051788;28;20188;-84
2022/02/12 03:16:17;;;;;;;19.92;11.60;;;3.70;75.10;;;;;;5053201;28;20244;-85
2022/02/12 03:18:47;;;;;;;29.77;12.73;;;3.60;75.00;;;;;;5049777;28;20201;-84
2022/02/12 03:21:13;;;;;;;25.38;13.68;;;3.70;75.10;;;;;;5051134;28;20170;-84
2022/02/12 03:23:41;;;;;;;32.10;12.50;;;3.60;75.00;;;;;;5049999;28;20178;-85
2022/02/12 03:26:07;;;;;;;23.52;12.40;;;3.60;75.00;;;;;;5053921;28;20445;-84
2022/02/12 03:28:34;;;;;;;23.00;12.07;;;3.40;75.20;;;;;;5057000;28;20188;-84
2022/02/12 03:31:00;;;;;;;28.45;11.00;;;3.50;75.70;;;;;;5051909;28;20203;-84
2022/02/12 03:33:26;;;;;;;27.52;12.05;;;3.60;75.70;;;;;;5042354;28;20189;-84
2022/02/12 03:35:53;;;;;;;26.17;12.00;;;3.60;75.90;;;;;;5040212;28;20219;-84
2022/02/12 03:38:22;;;;;;;20.17;11.25;;;3.60;75.00;;;;;;5040010;28;20255;-84
2022/02/12 03:40:49;;;;;;;22.52;12.70;;;3.60;75.00;;;;;;5061625;28;20184;-84
2022/02/12 03:43:16;;;;;;;26.10;12.70;;;3.60;75.10;;;;;;5050007;28;20178;-85
2022/02/12 03:45:43;;;;;;;24.73;11.13;;;3.60;75.00;;;;;;5044881;28;20624;-85
2022/02/12 03:48:10;;;;;;;20.55;11.55;;;3.50;75.00;;;;;;5051061;28;20181;-84
2022/02/12 03:50:37;;;;;;;19.80;10.98;;;3.50;74.90;;;;;;5046138;28;20622;-84
2022/02/12 03:53:05;;;;;;;32.20;14.00;;;3.50;74.80;;;;;;5043356;28;20181;-84
2022/02/12 03:55:36;;;;;;;19.45;11.55;;;3.50;74.80;;;;;;5049128;28;20206;-84
2022/02/12 03:58:04;;;;;;;20.38;11.68;;;3.40;74.80;;;;;;5050472;28;20198;-84
2022/02/12 04:00:30;;;;;;;22.42;10.45;;;3.50;75.00;;;;;;5041751;28;20251;-85
2022/02/12 04:02:57;;;;;;;26.60;13.93;;;3.50;75.10;;;;;;5048717;28;20189;-85
2022/02/12 04:05:23;;;;;;;28.08;11.93;;;3.40;75.00;;;;;;5047790;28;20224;-84
2022/02/12 04:07:49;;;;;;;27.10;12.63;;;3.50;75.20;;;;;;5045613;28;20649;-85
2022/02/12 04:10:17;;;;;;;33.43;13.50;;;3.40;75.10;;;;;;5042865;28;20192;-85
2022/02/12 04:12:48;;;;;;;24.80;11.40;;;3.50;75.30;;;;;;5050298;28;20927;-84
2022/02/12 04:15:14;;;;;;;23.98;10.85;;;3.40;75.20;;;;;;5051825;28;20198;-84
2022/02/12 04:17:40;;;;;;;21.40;11.43;;;3.40;75.10;;;;;;5048883;28;20281;-85
2022/02/12 04:20:12;;;;;;;25.67;11.00;;;3.40;75.20;;;;;;5042890;28;20196;-84
2022/02/12 04:22:39;;;;;;;25.83;10.60;;;3.30;75.20;;;;;;5051182;28;20181;-86
2022/02/12 04:25:08;;;;;;;32.97;12.98;;;3.40;75.20;;;;;;5040656;28;20190;-84
2022/02/12 04:27:34;;;;;;;21.30;10.95;;;3.20;75.40;;;;;;5057711;28;20184;-85
2022/02/12 04:30:00;;;;;;;26.17;11.27;;;3.20;75.60;;;;;;5045864;28;20700;-85
2022/02/12 04:32:26;;;;;;;24.20;11.70;;;3.30;75.60;;;;;;5059009;28;20186;-85
2022/02/12 04:34:53;;;;;;;21.13;10.87;;;3.30;75.60;;;;;;5052040;28;20595;-85
2022/02/12 04:37:20;;;;;;;24.73;12.38;;;3.30;75.70;;;;;;5037522;28;20281;-85
2022/02/12 04:39:46;;;;;;;20.02;11.70;;;3.30;75.50;;;;;;5053829;28;20239;-84
2022/02/12 04:42:12;;;;;;;27.73;12.10;;;3.20;75.40;;;;;;5047709;28;20710;-84
2022/02/12 04:44:43;;;;;;;18.90;11.80;;;3.20;75.40;;;;;;5046402;28;20204;-84
2022/02/12 04:47:09;;;;;;;23.23;11.35;;;3.20;75.50;;;;;;5052563;28;20197;-84
2022/02/12 04:49:36;;;;;;;23.65;11.77;;;3.30;75.50;;;;;;5049419;28;20630;-85
2022/02/12 04:52:03;;;;;;;30.17;11.60;;;3.20;75.40;;;;;;5045369;28;20199;-85
2022/02/12 04:54:29;;;;;;;27.02;12.40;;;3.20;75.50;;;;;;5042656;28;20202;-85
2022/02/12 04:56:56;;;;;;;21.20;11.73;;;3.30;75.60;;;;;;5051411;28;20215;-84
2022/02/12 04:59:22;;;;;;;21.13;11.07;;;3.20;75.40;;;;;;5038392;28;20948;-85
2022/02/12 05:01:50;;;;;;;17.67;10.48;;;3.20;75.40;;;;;;5055446;28;20184;-84
2022/02/12 05:04:16;;;;;;;24.98;11.20;;;3.20;75.40;;;;;;5035890;28;20739;-85
2022/02/12 05:06:42;;;;;;;22.00;11.00;;;3.20;75.20;;;;;;5041660;28;20178;-84
2022/02/12 05:09:09;;;;;;;32.30;12.53;;;3.10;75.30;;;;;;5046762;28;20181;-84
2022/02/12 05:11:35;;;;;;;23.40;12.35;;;3.10;75.50;;;;;;5048276;28;20837;-85
2022/02/12 05:14:01;;;;;;;29.70;13.40;;;3.10;75.70;;;;;;5043147;28;20198;-85
2022/02/12 05:16:27;;;;;;;31.37;11.80;;;3.00;75.60;;;;;;5046512;28;20181;-84
2022/02/12 05:18:52;;;;;;;24.20;11.40;;;3.00;75.70;;;;;;5043834;28;20460;-84
2022/02/12 05:21:18;;;;;;;32.47;12.20;;;3.00;76.00;;;;;;5038782;28;20174;-84
2022/02/12 05:23:44;;;;;;;29.17;14.30;;;2.80;75.90;;;;;;5046521;28;21141;-84
2022/02/12 05:26:11;;;;;;;26.65;9.93;;;2.70;76.60;;;;;;5050971;28;20174;-85
2022/02/12 05:28:36;;;;;;;32.30;11.93;;;2.70;77.00;;;;;;5046355;28;20192;-86
2022/02/12 05:31:02;;;;;;;16.20;9.63;;;2.50;77.40;;;;;;5034700;28;20178;-86
2022/02/12 05:33:28;;;;;;;19.97;10.60;;;2.60;77.70;;;;;;5043820;28;20268;-86
2022/02/12 05:35:53;;;;;;;29.73;11.17;;;2.70;77.70;;;;;;5046585;28;20197;-87
2022/02/12 05:38:19;;;;;;;20.67;10.53;;;2.80;77.50;;;;;;5045860;28;20866;-86
2022/02/12 05:40:45;;;;;;;19.50;10.40;;;2.60;77.10;;;;;;5045812;28;20173;-87
2022/02/12 05:43:10;;;;;;;23.03;9.33;;;2.60;77.20;;;;;;5044985;28;20899;-86
2022/02/12 05:45:36;;;;;;;24.97;10.50;;;2.70;77.30;;;;;;5043724;28;20206;-86
2022/02/12 05:48:02;;;;;;;15.73;8.90;;;2.70;77.10;;;;;;5044488;28;20943;-86
2022/02/12 05:50:29;;;;;;;18.00;9.07;;;2.70;77.00;;;;;;5050444;28;20566;-86
2022/02/12 05:52:58;;;;;;;24.17;9.77;;;2.80;77.00;;;;;;5048296;28;20455;-86
2022/02/12 05:55:25;;;;;;;26.33;10.25;;;2.80;77.00;;;;;;5048561;28;20224;-83
2022/02/12 05:57:57;;;;;;;19.25;9.70;;;2.80;77.10;;;;;;5045105;28;20205;-86
2022/02/12 06:00:23;;;;;;;15.85;9.85;;;2.80;77.00;;;;;;5052078;28;20614;-85
2022/02/12 06:02:49;;;;;;;16.90;9.47;;;2.70;77.20;;;;;;5048612;28;20181;-85
2022/02/12 06:05:14;;;;;;;23.30;9.10;;;2.50;77.10;;;;;;5037457;28;20998;-84
2022/02/12 06:07:40;;;;;;;28.20;11.13;;;2.60;77.30;;;;;;5042832;28;20654;-84
2022/02/12 06:10:06;;;;;;;17.53;9.87;;;2.60;77.50;;;;;;5039130;28;20184;-86
2022/02/12 06:12:32;;;;;;;24.95;10.10;;;2.60;77.70;;;;;;5044686;28;20779;-86
2022/02/12 06:14:57;;;;;;;14.77;8.70;;;2.60;77.50;;;;;;5055905;28;20215;-84
2022/02/12 06:17:23;;;;;;;21.30;9.83;;;2.60;77.60;;;;;;5053946;28;20206;-84
2022/02/12 06:19:49;;;;;;;13.40;8.33;;;2.50;77.90;;;;;;5052347;28;20192;-86
2022/02/12 06:22:15;;;;;;;18.50;9.00;;;2.50;78.00;;;;;;5046940;28;20181;-86
2022/02/12 06:24:40;;;;;;;20.47;8.97;;;2.40;78.10;;;;;;5049298;28;20251;-86
2022/02/12 06:27:06;;;;;;;16.03;8.50;;;2.20;78.60;;;;;;5042367;28;20177;-86
2022/02/12 06:29:33;;;;;;;18.27;7.10;;;2.20;79.00;;;;;;5049352;28;20181;-86
2022/02/12 06:31:59;;;;;;;19.35;8.63;;;2.20;79.20;;;;;;5041350;28;21012;-86
2022/02/12 06:34:25;;;;;;;15.88;8.70;;;2.20;79.30;;;;;;5048001;28;20209;-86
2022/02/12 06:36:50;;;;;;;26.33;8.68;;;2.10;79.50;;;;;;5048678;28;20213;-86
2022/02/12 06:39:16;;;;;;;13.10;7.70;;;2.10;79.50;;;;;;5045245;28;20173;-86
2022/02/12 06:41:42;;;;;;;22.70;9.40;;;2.10;79.50;;;;;;5053591;28;20184;-86
2022/02/12 06:44:09;;;;;;;18.35;9.18;;;2.10;79.70;;;;;;5040303;28;20277;-87
2022/02/12 06:46:34;;;;;;;14.80;8.15;;;2.10;79.90;;;;;;5045892;28;20177;-86
2022/02/12 06:49:00;;;;;;;16.97;9.10;;;2.00;79.80;;;;;;5037329;28;20177;-86
2022/02/12 06:51:26;;;;;;;21.73;8.60;;;1.90;79.90;;;;;;5046010;28;20423;-85
2022/02/12 06:53:51;;;;;;;31.27;9.57;;;2.00;80.00;;;;;;5043245;28;20218;-86
2022/02/12 06:56:17;;;;;;;17.37;8.07;;;2.10;80.40;;;;;;5050266;28;20645;-85
2022/02/12 06:58:43;;;;;;;19.20;7.87;;;2.10;80.20;;;;;;5052209;28;20209;-87
2022/02/12 07:01:08;;;;;;;21.37;8.17;;;2.10;79.80;;;;;;5050974;28;20169;-87
2022/02/12 07:03:34;;;;;;;15.47;7.50;;;2.00;79.60;;;;;;5050779;28;20174;-85
2022/02/12 07:06:00;;;;;;;19.20;7.70;;;2.00;79.70;;;;;;5035546;28;20210;-86
2022/02/12 07:08:26;;;;;;;22.77;9.37;;;2.10;79.80;;;;;;5049861;28;20431;-86
2022/02/12 07:10:51;;;;;;;18.27;8.30;;;2.10;79.80;;;;;;5043654;28;20188;-86
2022/02/12 07:13:17;;;;;;;19.50;9.10;;;2.20;79.80;;;;;;5041433;28;20185;-87
2022/02/12 07:15:43;;;;;;;14.37;7.53;;;2.20;79.30;;;;;;5049280;28;20197;-86
2022/02/12 07:18:09;;;;;;;11.73;7.78;;;2.30;78.90;;;;;;5057898;28;20217;-86
2022/02/12 07:20:35;;;;;;;11.87;8.50;;;2.30;78.40;;;;;;5048597;28;20186;-86
2022/02/12 07:23:01;;;;;;;12.55;7.47;;;2.30;78.20;;;;;;5046914;28;20443;-85
2022/02/12 07:25:26;;;;;;;18.07;8.53;;;2.40;78.00;;;;;;5047055;28;20209;-86
2022/02/12 07:27:56;;;;;;;16.10;8.60;;;2.40;77.80;;;;;;5045535;28;20451;-86
2022/02/12 07:30:22;;;;;;;16.10;7.13;;;2.30;77.50;;;;;;5051052;28;20170;-86
2022/02/12 07:32:49;;;;;;;11.82;6.68;;;2.30;77.50;;;;;;5053131;28;20274;-86
2022/02/12 07:35:18;;;;;;;12.52;8.05;;;2.10;77.30;;;;;;5037482;28;20247;-85
2022/02/12 07:37:46;;;;;;;19.98;8.13;;;2.10;77.80;;;;;;5035488;28;20206;-86
2022/02/12 07:40:14;;;;;;;14.77;7.68;;;2.20;77.80;;;;;;5033134;28;20178;-86
2022/02/12 07:42:40;;;;;;;22.10;9.02;;;2.20;77.70;;;;;;5032715;28;20260;-86
2022/02/12 07:45:07;;;;;;;16.77;7.60;;;2.10;77.90;;;;;;5034039;28;20335;-86
2022/02/12 07:47:33;;;;;;;16.52;7.95;;;2.00;78.10;;;;;;5035220;28;20197;-86
2022/02/12 07:49:59;;;;;;;16.95;7.78;;;2.00;78.30;;;;;;5034873;28;20665;-86
2022/02/12 07:52:25;;;;;;;28.23;7.97;;;1.90;78.60;;;;;;5037127;28;20185;-86
2022/02/12 07:54:51;;;;;;;13.57;6.63;;;2.00;78.70;;;;;;5038662;28;20198;-88
2022/02/12 07:57:16;;;;;;;15.50;6.87;;;2.00;78.60;;;;;;5038200;28;20464;-87
2022/02/12 07:59:42;;;;;;;13.45;7.45;;;1.90;78.70;;;;;;5037576;28;20206;-87
2022/02/12 08:02:10;;;;;;;13.53;6.80;;;1.80;78.90;;;;;;5038009;28;20204;-86
2022/02/12 08:04:35;;;;;;;17.08;6.45;;;2.00;79.00;;;;;;5037486;28;20480;-87
2022/02/12 08:09:46;;;;;;;14.98;6.40;;;2.10;78.50;;;;;;5022796;28;20401;-87
2022/02/12 08:12:15;;;;;;;23.42;8.38;;;2.20;78.20;;;;;;5041231;28;20189;-86
2022/02/12 08:14:53;;;;;;;14.18;7.10;;;2.20;77.90;;;;;;5036386;28;20202;-86
2022/02/12 08:17:20;;;;;;;10.68;7.07;;;2.20;77.70;;;;;;5036221;28;20201;-86
2022/02/12 08:19:48;;;;;;;27.35;7.60;;;2.20;77.50;;;;;;5039753;28;20182;-86
2022/02/12 08:22:16;;;;;;;13.30;6.75;;;2.20;77.50;;;;;;5040028;28;20561;-86
2022/02/12 08:24:42;;;;;;;12.80;6.88;;;2.40;77.40;;;;;;5035930;28;20193;-87
2022/02/12 08:27:11;;;;;;;24.50;8.75;;;2.60;77.30;;;;;;5037202;28;20273;-86
2022/02/12 08:29:39;;;;;;;20.83;7.60;;;2.60;76.70;;;;;;5039370;28;20182;-87
2022/02/12 08:32:05;;;;;;;14.27;6.28;;;2.50;76.50;;;;;;5038125;28;20178;-87
2022/02/12 08:34:31;;;;;;;14.43;7.80;;;2.40;76.40;;;;;;5038145;28;20255;-86
2022/02/12 08:36:58;;;;;;;24.45;7.78;;;2.50;76.50;;;;;;5039655;28;20557;-86
2022/02/12 08:39:23;;;;;;;10.15;6.85;;;2.60;76.50;;;;;;5041607;28;20177;-87
2022/02/12 08:41:50;;;;;;;13.95;7.03;;;2.70;76.40;;;;;;5037827;28;20174;-87
2022/02/12 08:44:16;;;;;;;15.93;7.00;;;2.70;76.10;;;;;;5034974;28;20201;-87
2022/02/12 08:46:48;;;;;;;13.25;7.10;;;2.80;75.90;;;;;;5036023;28;20197;-87
2022/02/12 08:49:14;;;;;;;12.93;7.10;;;2.90;75.50;;;;;;5036924;28;20514;-86
2022/02/12 08:51:40;;;;;;;11.93;6.13;;;2.90;75.20;;;;;;5039255;28;20241;-86
2022/02/12 08:54:10;;;;;;;19.33;7.10;;;2.90;75.40;;;;;;5036820;28;20194;-86
2022/02/12 08:56:39;;;;;;;13.48;5.10;;;3.00;75.30;;;;;;5038679;28;20174;-86
2022/02/12 08:59:05;;;;;;;14.10;7.03;;;3.10;75.10;;;;;;5035497;28;20235;-88
2022/02/12 09:01:32;;;;;;;11.05;6.32;;;3.10;74.90;;;;;;5035614;28;20181;-87
2022/02/12 09:03:58;;;;;;;20.73;6.90;;;3.20;74.50;;;;;;5037590;28;20202;-87
2022/02/12 09:06:26;;;;;;;10.52;6.65;;;3.10;74.40;;;;;;5040252;28;20210;-86
2022/02/12 09:08:52;;;;;;;8.98;6.93;;;3.20;74.40;;;;;;5035914;28;20177;-86
2022/02/12 09:11:19;;;;;;;12.63;6.75;;;3.20;74.40;;;;;;5036610;28;20232;-85
2022/02/12 09:13:49;;;;;;;13.63;6.95;;;3.30;75.40;;;;;;5035779;28;20177;-84
2022/02/12 09:16:17;;;;;;;15.68;6.07;;;3.50;75.80;;;;;;5041844;28;20212;-85
2022/02/12 09:18:44;;;;;;;9.07;5.70;;;3.60;75.30;;;;;;5045692;28;20206;-85
2022/02/12 09:21:09;;;;;;;24.75;6.63;;;3.70;75.10;;;;;;5038921;28;20170;-85
2022/02/12 09:23:35;;;;;;;12.20;6.90;;;3.90;75.00;;;;;;5034260;28;20232;-85
2022/02/12 09:26:01;;;;;;;12.02;5.88;;;4.00;74.40;;;;;;5034778;28;20240;-84
2022/02/12 09:28:27;;;;;;;10.73;5.45;;;4.20;74.20;;;;;;5034171;28;20232;-85
2022/02/12 09:30:53;;;;;;;25.63;6.13;;;4.30;73.90;;;;;;5035086;28;20184;-85
2022/02/12 09:33:19;;;;;;;16.27;5.70;;;4.30;73.40;;;;;;5038905;28;20182;-85
2022/02/12 09:35:47;;;;;;;15.00;5.70;;;4.40;73.10;;;;;;5035609;28;20796;-84
2022/02/12 09:38:13;;;;;;;16.73;6.50;;;4.50;72.80;;;;;;5033181;28;20547;-85
2022/02/12 09:40:40;;;;;;;12.80;5.53;;;4.40;71.90;;;;;;5031620;28;20221;-85
2022/02/12 09:43:07;;;;;;;26.85;5.78;;;4.50;72.20;;;;;;5034814;28;20606;-84
2022/02/12 09:45:41;;;;;;;16.10;6.15;;;4.40;71.30;;;;;;5036078;28;20197;-85
2022/02/12 09:48:10;;;;;;;11.35;5.00;;;4.60;71.50;;;;;;5036142;28;20182;-85
2022/02/12 09:50:38;;;;;;;12.48;5.38;;;4.70;71.20;;;;;;5035316;28;20208;-85
2022/02/12 09:53:04;;;;;;;9.73;6.43;;;4.80;70.80;;;;;;5036639;28;20216;-86
2022/02/12 09:55:33;;;;;;;9.95;4.85;;;4.90;70.50;;;;;;5037561;28;20201;-85
2022/02/12 09:57:59;;;;;;;7.85;5.45;;;5.00;69.80;;;;;;5035785;28;20197;-86
2022/02/12 10:00:25;;;;;;;12.33;5.07;;;5.10;69.80;;;;;;5039318;28;20650;-85
2022/02/12 10:02:50;;;;;;;14.10;6.70;;;5.10;68.80;;;;;;5043304;28;20431;-86
2022/02/12 10:05:26;;;;;;;17.90;5.00;;;5.10;68.60;;;;;;5047356;28;21034;-86
2022/02/12 10:08:01;;;;;;;13.40;5.05;;;5.20;68.20;;;;;;5038377;28;20431;-83
2022/02/12 10:10:28;;;;;;;19.48;6.15;;;5.20;67.60;;;;;;5037092;28;20173;-83
2022/02/12 10:13:27;;;;;;;12.75;5.60;;;5.40;67.40;;;;;;5036138;28;20212;-83
2022/02/12 10:15:57;;;;;;;7.10;4.18;;;5.50;66.70;;;;;;5036096;28;20574;-83
2022/02/12 10:18:25;;;;;;;13.80;4.25;;;5.70;65.30;;;;;;5038284;28;20567;-84
2022/02/12 10:20:54;;;;;;;7.47;3.55;;;5.70;64.10;;;;;;5037431;28;20189;-83
2022/02/12 10:23:34;;;;;;;4.80;3.28;;;5.60;63.00;;;;;;5038481;28;20178;-84
2022/02/12 10:26:03;;;;;;;9.35;3.72;;;5.80;63.20;;;;;;5036615;28;20208;-83
2022/02/12 10:28:36;;;;;;;9.07;4.70;;;6.00;62.70;;;;;;5036434;28;20316;-83
2022/02/12 10:31:03;;;;;;;5.78;3.20;;;6.20;62.80;;;;;;5038330;28;20242;-83
2022/02/12 10:33:38;;;;;;;6.93;3.53;;;6.30;61.70;;;;;;5038560;28;20228;-84
2022/02/12 10:36:04;;;;;;;7.43;3.50;;;6.30;60.60;;;;;;5038351;28;20169;-84
2022/02/12 10:38:33;;;;;;;7.63;3.88;;;6.10;60.10;;;;;;5037919;28;20212;-84
2022/02/12 10:41:06;;;;;;;10.10;3.85;;;6.20;60.10;;;;;;5041333;28;20197;-83
2022/02/12 10:43:32;;;;;;;9.18;4.03;;;6.20;60.20;;;;;;5038789;28;20595;-84
2022/02/12 10:45:59;;;;;;;8.30;4.53;;;6.40;60.30;;;;;;5035822;28;20209;-83
2022/02/12 10:48:25;;;;;;;5.95;4.13;;;6.40;59.60;;;;;;5036298;28;20178;-84
2022/02/12 10:51:05;;;;;;;10.10;3.90;;;6.50;59.30;;;;;;5035966;28;20235;-84
2022/02/12 10:53:31;;;;;;;6.10;3.60;;;6.40;59.10;;;;;;5035045;28;20181;-84
2022/02/12 10:56:06;;;;;;;8.33;3.50;;;6.30;58.50;;;;;;5035103;28;20606;-84
2022/02/12 10:58:34;;;;;;;10.40;4.15;;;6.40;58.70;;;;;;5034595;28;20482;-84
2022/02/12 11:01:01;;;;;;;10.95;3.30;;;6.30;58.00;;;;;;5034278;28;20185;-84
2022/02/12 11:03:32;;;;;;;9.52;3.97;;;6.50;58.00;;;;;;5034167;28;20185;-84
2022/02/12 11:05:58;;;;;;;9.35;3.55;;;6.80;58.50;;;;;;5032031;28;20608;-84
2022/02/12 11:08:26;;;;;;;6.67;3.37;;;6.90;58.20;;;;;;5015851;28;20192;-85
2022/02/12 11:10:52;;;;;;;6.40;3.75;;;7.00;56.70;;;;;;5015395;28;20508;-84
2022/02/12 11:13:21;;;;;;;7.72;3.55;;;6.90;56.40;;;;;;5015443;28;20182;-84
2022/02/12 11:15:49;;;;;;;5.43;2.92;;;7.10;57.00;;;;;;5013954;28;20790;-84
2022/02/12 11:18:20;;;;;;;9.48;3.30;;;7.10;55.90;;;;;;5015287;28;20222;-84
2022/02/12 11:20:47;;;;;;;6.85;3.42;;;7.10;55.50;;;;;;5017281;28;20216;-84
2022/02/12 11:23:33;;;;;;;6.68;3.13;;;7.00;55.10;;;;;;5015845;28;20549;-84
2022/02/12 11:26:04;;;;;;;9.80;3.92;;;7.00;55.40;;;;;;5017379;28;20203;-84
2022/02/12 11:28:36;;;;;;;10.68;3.28;;;7.00;55.20;;;;;;5019744;28;20182;-84
2022/02/12 11:31:16;;;;;;;8.70;3.58;;;7.20;55.10;;;;;;5018892;28;20202;-83
2022/02/12 11:34:12;;;;;;;13.90;4.60;;;7.20;55.00;;;;;;5034765;28;20208;-86
2022/02/12 11:36:41;;;;;;;8.73;2.42;;;7.30;54.90;;;;;;5035892;28;20677;-85
2022/02/12 11:39:13;;;;;;;6.15;3.00;;;7.40;54.80;;;;;;5021111;28;20224;-83
2022/02/12 11:41:44;;;;;;;9.50;3.58;;;7.40;54.10;;;;;;5035806;28;20655;-83
2022/02/12 11:44:30;;;;;;;10.73;3.10;;;7.50;54.20;;;;;;5035676;28;20198;-85
2022/02/12 11:46:56;;;;;;;11.73;3.08;;;7.40;53.70;;;;;;5042552;28;20669;-85
2022/02/12 11:49:29;;;;;;;11.97;3.83;;;7.70;53.70;;;;;;5043079;28;20197;-85
2022/02/12 11:51:57;;;;;;;5.65;2.95;;;7.80;53.80;;;;;;5053717;28;20554;-84
2022/02/12 11:55:02;;;;;;;8.77;2.58;;;7.90;53.10;;;;;;5060978;28;20779;-84
2022/02/12 11:57:33;;;;;;;8.32;2.92;;;7.70;52.90;;;;;;5046136;28;20205;-84
2022/02/12 11:59:59;;;;;;;14.45;2.85;;;7.60;52.90;;;;;;5056438;28;20188;-85
2022/02/12 12:02:40;;;;;;;7.80;3.60;;;7.70;53.10;;;;;;5062827;28;20181;-85
2022/02/12 12:05:23;;;;;;;6.72;3.30;;;7.70;52.50;;;;;;5059289;28;20299;-85
2022/02/12 12:08:06;;;;;;;8.82;4.05;;;7.70;52.40;;;;;;5058947;28;20201;-87
2022/02/12 12:11:00;;;;;;;7.65;2.90;;;7.60;52.80;;;;;;5059646;28;20172;-86
2022/02/12 12:13:26;;;;;;;9.35;3.72;;;7.40;52.80;;;;;;5050594;28;20213;-85
2022/02/12 12:15:57;;;;;;;12.20;3.57;;;7.50;53.20;;;;;;5045943;28;20202;-84
2022/02/12 12:18:26;;;;;;;12.05;3.67;;;7.90;53.20;;;;;;5037102;28;20987;-83
2022/02/12 12:20:53;;;;;;;8.10;3.25;;;8.10;53.10;;;;;;5036956;28;20190;-84
2022/02/12 12:23:22;;;;;;;15.32;4.53;;;8.20;52.50;;;;;;5036944;28;20199;-84
2022/02/12 12:26:00;;;;;;;10.48;3.88;;;8.10;50.80;;;;;;5040535;28;20336;-84
2022/02/12 12:28:31;;;;;;;4.43;2.83;;;8.40;50.80;;;;;;5037814;28;20250;-86
2022/02/12 12:31:02;;;;;;;9.05;2.58;;;8.40;49.40;;;;;;5037867;28;20380;-84
2022/02/12 12:33:28;;;;;;;8.32;3.15;;;8.30;49.10;;;;;;5039324;28;20182;-84
2022/02/12 12:35:56;;;;;;;10.47;3.50;;;8.20;48.80;;;;;;5037896;28;20205;-84
2022/02/12 12:38:38;;;;;;;16.38;3.78;;;8.10;49.30;;;;;;5039565;28;20469;-84
2022/02/12 12:41:22;;;;;;;8.75;3.83;;;8.00;49.20;;;;;;5042253;28;20177;-84
2022/02/12 12:44:14;;;;;;;8.07;3.08;;;8.40;49.90;;;;;;5040016;28;20178;-87
2022/02/12 12:46:51;;;;;;;7.82;3.67;;;8.60;49.00;;;;;;5039113;28;20272;-84
2022/02/12 12:49:33;;;;;;;8.35;3.15;;;8.80;48.90;;;;;;5039684;28;20193;-83
2022/02/12 12:52:01;;;;;;;8.90;3.78;;;8.60;47.50;;;;;;5041368;28;20693;-85
2022/02/12 12:54:39;;;;;;;12.30;3.83;;;8.50;47.70;;;;;;5042654;28;20202;-85